• Join FlightAware (Why Join?)
  • Login
  • US Flag 
09:51PM EDT


 

Airport Tracker/Info


-or-


 

Live Flight TrackerFlight Track Log ✈ AMF723 ✈ 16-Jul-2013 ✈ KCGF - KCVG

Flight Track Log - Related Links

Times and Time Zones

All times are in EDT time to prevent confusion due to time zone crossing. See the AMF723 flight status page for this flight to view local times or setup timezone preferences in your user account.

Time Position Orientation Groundspeed Altitude Reporting Facility
EDT Latitude Longitude Course Direction KTS MPH feet Rate Location/Type
08:24PM 41.5392 -81.5097 214° Southwest 150 173 2,400  Level Cleveland Center
08:25PM 41.4831 -81.5033 175° South 196 226 4,000 1,320 Climbing Cleveland Center
08:26PM 41.4331 -81.5053 182° South 206 237 5,100 1,080 Climbing Cleveland Center
08:27PM 41.3889 -81.5436 213° Southwest 221 254 6,100 1,020 Climbing Cleveland Center
08:28PM 41.3300 -81.6008 216° Southwest 222 255 7,200 1,020 Climbing Cleveland Center
08:29PM 41.2839 -81.6414 213° Southwest 242 278 8,200 900 Climbing Cleveland Center
08:30PM 41.2353 -81.6958 220° Southwest 242 278 9,100 840 Climbing Cleveland Center
08:31PM 41.1933 -81.7419 220° Southwest 235 270 9,900 720 Climbing Cleveland Center
08:32PM 41.1447 -81.7908 217° Southwest 223 257 10,600 720 Climbing Cleveland Center
08:33PM 41.0919 -81.8506 220° Southwest 236 272 11,400 660 Climbing Cleveland Center
08:34PM 41.0433 -81.9044 220° Southwest 242 278 12,000 540 Climbing Cleveland Center
08:35PM 40.9906 -81.9639 220° Southwest 242 278 12,500 540 Climbing Cleveland Center
08:36PM 40.9378 -82.0206 219° Southwest 242 278 13,100 480 Climbing Cleveland Center
08:37PM 40.8831 -82.0717 215° Southwest 242 278 13,500 420 Climbing Cleveland Center
08:38PM 40.8197 -82.1197 210° Southwest 242 278 14,000 240 Climbing Cleveland Center
08:39PM 40.7567 -82.1619 207° Southwest 247 284 14,000 -120 Level Cleveland Center
08:40PM 40.7283 -82.1775 203° Southwest 251 289 13,900 -120 Descending Indianapolis Center
08:41PM 40.6639 -82.2194 206° Southwest 255 293 13,900  Level Indianapolis Center
08:42PM 40.5994 -82.2644 208° Southwest 259 298 13,900  Level Indianapolis Center
08:43PM 40.5358 -82.3122 210° Southwest 259 298 13,900  Level Indianapolis Center
08:44PM 40.4736 -82.3611 211° Southwest 258 297 13,900  Level Indianapolis Center
08:45PM 40.4103 -82.4072 209° Southwest 258 297 13,900  Level Indianapolis Center
08:46PM 40.3453 -82.4528 208° Southwest 261 300 14,000  Climbing Indianapolis Center
08:47PM 40.2689 -82.5044 207° Southwest 260 299 14,000  Level Indianapolis Center
08:48PM 40.2139 -82.5439 209° Southwest 257 296 14,000 -60 Level Indianapolis Center
08:49PM 40.1439 -82.6047 214° Southwest 264 304 13,900  Descending Indianapolis Center
08:50PM 40.1111 -82.6883 243° Southwest 261 300 14,000  Climbing Indianapolis Center
08:51PM 40.0778 -82.7744 243° Southwest 262 302 14,000  Level Indianapolis Center
08:52PM 40.0436 -82.8589 242° Southwest 261 300 14,000  Level Indianapolis Center
08:53PM 40.0100 -82.9442 243° Southwest 261 300 14,000  Level Indianapolis Center
08:54PM 39.9744 -83.0275 241° Southwest 260 299 14,000  Level Indianapolis Center
08:55PM 39.9381 -83.1103 240° Southwest 261 300 14,000  Level Indianapolis Center
08:56PM 39.9006 -83.1917 239° Southwest 259 298 14,000  Level Indianapolis Center
08:57PM 39.8631 -83.2742 239° Southwest 262 302 14,000  Level Indianapolis Center
08:58PM 39.8258 -83.3564 240° Southwest 260 299 14,000  Level Indianapolis Center
08:59PM 39.7869 -83.4403 239° Southwest 262 302 14,000  Level Indianapolis Center
09:00PM 39.7508 -83.5244 241° Southwest 258 297 14,100  Climbing Indianapolis Center
09:01PM 39.7161 -83.6097 242° Southwest 262 302 14,100  Level Indianapolis Center
09:02PM 39.6825 -83.6950 243° Southwest 262 302 14,100 -120 Level Indianapolis Center
09:03PM 39.6481 -83.7794 242° Southwest 263 303 13,900 -480 Descending Indianapolis Center
09:04PM 39.6122 -83.8683 242° Southwest 274 315 13,200 -840 Descending Indianapolis Center
09:05PM 39.5642 -83.9497 233° Southwest 283 326 12,300 -900 Descending Indianapolis Center
09:06PM 39.5269 -84.0072 230° Southwest 284 327 11,700 -900 Descending Indianapolis Center
09:06PM 39.4947 -84.0533 228° Southwest 283 326 11,200 -540 Descending Indianapolis Center
09:07PM 39.4519 -84.1136 227° Southwest 276 318 11,000 -180 Descending Indianapolis Center
09:08PM 39.4017 -84.1844 227° Southwest 267 307 10,900 -300 Descending Indianapolis Center
09:09PM 39.3597 -84.2653 236° Southwest 271 312 10,400 -840 Descending Indianapolis Center
09:10PM 39.3250 -84.3572 244° Southwest 283 326 9,300 -1,320 Descending Indianapolis Center
09:11PM 39.2867 -84.4486 242° Southwest 286 329 7,800 -1,740 Descending Indianapolis Center
09:12PM 39.2514 -84.5389 243° Southwest 282 325 5,800 -2,160 Descending Indianapolis Center
09:13PM 39.2200 -84.6236 244° Southwest 270 311 3,400 -1,320 Descending Indianapolis Center
09:14PM 39.1914 -84.7031 245° Southwest 267 307 3,200 -840 Descending Indianapolis Center
09:15PM 39.1167 -84.6667 159° South 204 235 1,900 -1,140 Descending Cincinnati TRACON
09:16PM 39.0833 -84.6667 180° South 128 147 1,200 -720 Descending Cincinnati TRACON
09:18PM 39.0488 -84.6678 38° Northeast  Level Estimated
09:25PM 39.0488 -84.6678 38° Northeast  Level Estimated